sensor_id;sensor_type;location;lat;lon;timestamp;P1;durP1;ratioP1;P2;durP2;ratioP2
70426;SDS011;57872;55.432;37.248;2022-11-12T00:01:59;13.52;;;5.95;;
70426;SDS011;57872;55.432;37.248;2022-11-12T00:07:22;12.07;;;4.93;;
70426;SDS011;57872;55.432;37.248;2022-11-12T00:12:47;10.65;;;5.03;;
70426;SDS011;57872;55.432;37.248;2022-11-12T00:18:08;13.20;;;5.68;;
70426;SDS011;57872;55.432;37.248;2022-11-12T00:23:30;10.73;;;4.57;;
70426;SDS011;57872;55.432;37.248;2022-11-12T00:28:55;9.27;;;4.75;;
70426;SDS011;57872;55.432;37.248;2022-11-12T00:34:39;10.45;;;4.57;;
70426;SDS011;57872;55.432;37.248;2022-11-12T00:40:19;12.52;;;5.20;;
70426;SDS011;57872;55.432;37.248;2022-11-12T00:45:49;11.40;;;4.45;;
70426;SDS011;57872;55.432;37.248;2022-11-12T00:51:14;9.88;;;4.45;;
70426;SDS011;57872;55.432;37.248;2022-11-12T01:02:37;11.95;;;4.40;;
70426;SDS011;57872;55.432;37.248;2022-11-12T01:07:58;8.90;;;4.18;;
70426;SDS011;57872;55.432;37.248;2022-11-12T01:13:24;8.60;;;4.50;;
70426;SDS011;57872;55.432;37.248;2022-11-12T01:18:43;12.00;;;4.90;;
70426;SDS011;57872;55.432;37.248;2022-11-12T01:24:03;13.13;;;5.65;;
70426;SDS011;57872;55.432;37.248;2022-11-12T01:29:23;12.68;;;5.32;;
70426;SDS011;57872;55.432;37.248;2022-11-12T01:34:45;12.55;;;5.05;;
70426;SDS011;57872;55.432;37.248;2022-11-12T01:40:07;11.25;;;4.97;;
70426;SDS011;57872;55.432;37.248;2022-11-12T01:45:27;13.30;;;5.20;;
70426;SDS011;57872;55.432;37.248;2022-11-12T01:50:47;16.15;;;6.15;;
70426;SDS011;57872;55.432;37.248;2022-11-12T01:56:07;11.25;;;5.03;;
70426;SDS011;57872;55.432;37.248;2022-11-12T02:01:26;11.88;;;5.05;;
70426;SDS011;57872;55.432;37.248;2022-11-12T02:06:45;11.57;;;5.20;;
70426;SDS011;57872;55.432;37.248;2022-11-12T02:12:05;12.27;;;5.00;;
70426;SDS011;57872;55.432;37.248;2022-11-12T02:17:25;10.93;;;4.82;;
70426;SDS011;57872;55.432;37.248;2022-11-12T02:22:44;13.07;;;5.93;;
70426;SDS011;57872;55.432;37.248;2022-11-12T02:28:07;11.60;;;5.38;;
70426;SDS011;57872;55.432;37.248;2022-11-12T02:33:27;11.40;;;5.53;;
70426;SDS011;57872;55.432;37.248;2022-11-12T02:45:09;11.77;;;5.55;;
70426;SDS011;57872;55.432;37.248;2022-11-12T02:50:35;13.70;;;5.80;;
70426;SDS011;57872;55.432;37.248;2022-11-12T02:56:17;12.05;;;5.68;;
70426;SDS011;57872;55.432;37.248;2022-11-12T03:02:03;13.45;;;6.00;;
70426;SDS011;57872;55.432;37.248;2022-11-12T03:07:22;15.02;;;6.55;;
70426;SDS011;57872;55.432;37.248;2022-11-12T03:12:50;17.50;;;6.10;;
70426;SDS011;57872;55.432;37.248;2022-11-12T03:18:10;14.23;;;6.80;;
70426;SDS011;57872;55.432;37.248;2022-11-12T03:23:30;18.15;;;6.10;;
70426;SDS011;57872;55.432;37.248;2022-11-12T03:28:50;12.55;;;5.32;;
70426;SDS011;57872;55.432;37.248;2022-11-12T03:34:10;11.20;;;5.70;;
70426;SDS011;57872;55.432;37.248;2022-11-12T03:39:29;14.50;;;5.95;;
70426;SDS011;57872;55.432;37.248;2022-11-12T03:44:48;15.73;;;5.65;;
70426;SDS011;57872;55.432;37.248;2022-11-12T03:50:13;11.05;;;5.70;;
70426;SDS011;57872;55.432;37.248;2022-11-12T03:55:37;10.68;;;5.43;;
70426;SDS011;57872;55.432;37.248;2022-11-12T04:01:11;10.15;;;4.95;;
70426;SDS011;57872;55.432;37.248;2022-11-12T04:06:37;10.30;;;5.50;;
70426;SDS011;57872;55.432;37.248;2022-11-12T04:12:18;12.27;;;5.00;;
70426;SDS011;57872;55.432;37.248;2022-11-12T04:17:59;14.23;;;4.60;;
70426;SDS011;57872;55.432;37.248;2022-11-12T04:23:38;10.27;;;4.60;;
70426;SDS011;57872;55.432;37.248;2022-11-12T04:29:05;13.45;;;4.78;;
70426;SDS011;57872;55.432;37.248;2022-11-12T04:34:49;10.65;;;4.80;;
70426;SDS011;57872;55.432;37.248;2022-11-12T04:40:22;12.02;;;4.82;;
70426;SDS011;57872;55.432;37.248;2022-11-12T04:46:02;10.20;;;4.57;;
70426;SDS011;57872;55.432;37.248;2022-11-12T04:51:22;10.13;;;4.57;;
70426;SDS011;57872;55.432;37.248;2022-11-12T04:57:00;11.82;;;4.40;;
70426;SDS011;57872;55.432;37.248;2022-11-12T05:02:27;10.73;;;4.38;;
70426;SDS011;57872;55.432;37.248;2022-11-12T05:08:00;9.95;;;4.32;;
70426;SDS011;57872;55.432;37.248;2022-11-12T05:13:26;9.77;;;3.60;;
70426;SDS011;57872;55.432;37.248;2022-11-12T05:18:52;10.63;;;4.15;;
70426;SDS011;57872;55.432;37.248;2022-11-12T05:24:27;8.65;;;3.50;;
70426;SDS011;57872;55.432;37.248;2022-11-12T05:30:32;8.13;;;3.80;;
70426;SDS011;57872;55.432;37.248;2022-11-12T05:35:55;10.43;;;3.78;;
70426;SDS011;57872;55.432;37.248;2022-11-12T05:41:24;7.57;;;4.00;;
70426;SDS011;57872;55.432;37.248;2022-11-12T05:46:49;7.32;;;2.80;;
70426;SDS011;57872;55.432;37.248;2022-11-12T05:52:39;7.15;;;3.10;;
70426;SDS011;57872;55.432;37.248;2022-11-12T06:04:10;8.95;;;3.00;;
70426;SDS011;57872;55.432;37.248;2022-11-12T06:09:35;7.03;;;2.78;;
70426;SDS011;57872;55.432;37.248;2022-11-12T06:14:58;6.28;;;2.90;;
70426;SDS011;57872;55.432;37.248;2022-11-12T06:20:30;8.23;;;3.03;;
70426;SDS011;57872;55.432;37.248;2022-11-12T06:25:50;8.02;;;2.90;;
70426;SDS011;57872;55.432;37.248;2022-11-12T06:31:24;7.10;;;2.80;;
70426;SDS011;57872;55.432;37.248;2022-11-12T06:36:49;5.82;;;2.45;;
70426;SDS011;57872;55.432;37.248;2022-11-12T06:42:09;5.95;;;2.70;;
70426;SDS011;57872;55.432;37.248;2022-11-12T06:47:28;7.63;;;2.60;;
70426;SDS011;57872;55.432;37.248;2022-11-12T06:52:47;5.80;;;2.22;;
70426;SDS011;57872;55.432;37.248;2022-11-12T06:58:12;5.75;;;2.55;;
70426;SDS011;57872;55.432;37.248;2022-11-12T07:03:45;5.35;;;2.10;;
70426;SDS011;57872;55.432;37.248;2022-11-12T07:09:14;5.28;;;2.10;;
70426;SDS011;57872;55.432;37.248;2022-11-12T07:14:37;5.55;;;2.03;;
70426;SDS011;57872;55.432;37.248;2022-11-12T07:20:11;5.20;;;1.92;;
70426;SDS011;57872;55.432;37.248;2022-11-12T07:25:56;5.22;;;2.13;;
70426;SDS011;57872;55.432;37.248;2022-11-12T07:31:20;5.25;;;1.98;;
70426;SDS011;57872;55.432;37.248;2022-11-12T07:36:57;4.93;;;1.70;;
70426;SDS011;57872;55.432;37.248;2022-11-12T07:42:57;6.32;;;2.13;;
70426;SDS011;57872;55.432;37.248;2022-11-12T07:48:16;4.82;;;1.70;;
70426;SDS011;57872;55.432;37.248;2022-11-12T07:53:38;4.32;;;1.92;;
70426;SDS011;57872;55.432;37.248;2022-11-12T07:59:01;5.50;;;2.28;;
70426;SDS011;57872;55.432;37.248;2022-11-12T08:04:32;6.05;;;2.28;;
70426;SDS011;57872;55.432;37.248;2022-11-12T08:09:58;4.68;;;1.67;;
70426;SDS011;57872;55.432;37.248;2022-11-12T08:15:20;6.07;;;2.15;;
70426;SDS011;57872;55.432;37.248;2022-11-12T08:20:43;6.50;;;2.40;;
70426;SDS011;57872;55.432;37.248;2022-11-12T08:26:03;7.28;;;2.03;;
70426;SDS011;57872;55.432;37.248;2022-11-12T08:31:36;5.15;;;2.08;;
70426;SDS011;57872;55.432;37.248;2022-11-12T08:36:58;5.35;;;2.08;;
70426;SDS011;57872;55.432;37.248;2022-11-12T08:42:20;5.07;;;1.70;;
70426;SDS011;57872;55.432;37.248;2022-11-12T08:47:50;5.95;;;2.63;;
70426;SDS011;57872;55.432;37.248;2022-11-12T08:53:32;4.55;;;1.50;;
70426;SDS011;57872;55.432;37.248;2022-11-12T08:58:55;5.27;;;1.90;;
70426;SDS011;57872;55.432;37.248;2022-11-12T09:04:39;4.90;;;1.60;;
70426;SDS011;57872;55.432;37.248;2022-11-12T09:09:58;5.40;;;1.77;;
70426;SDS011;57872;55.432;37.248;2022-11-12T09:15:19;6.93;;;2.00;;
70426;SDS011;57872;55.432;37.248;2022-11-12T09:20:39;6.45;;;2.30;;
70426;SDS011;57872;55.432;37.248;2022-11-12T09:31:29;5.53;;;2.00;;
70426;SDS011;57872;55.432;37.248;2022-11-12T09:36:51;5.60;;;2.05;;
70426;SDS011;57872;55.432;37.248;2022-11-12T09:42:14;4.88;;;1.80;;
70426;SDS011;57872;55.432;37.248;2022-11-12T09:47:35;5.60;;;1.90;;
70426;SDS011;57872;55.432;37.248;2022-11-12T09:53:11;5.18;;;1.80;;
70426;SDS011;57872;55.432;37.248;2022-11-12T09:58:34;5.57;;;1.50;;
70426;SDS011;57872;55.432;37.248;2022-11-12T10:21:44;4.20;;;1.50;;
70426;SDS011;57872;55.432;37.248;2022-11-12T10:27:22;3.88;;;1.40;;
70426;SDS011;57872;55.432;37.248;2022-11-12T10:32:47;6.40;;;1.40;;
70426;SDS011;57872;55.432;37.248;2022-11-12T10:38:11;4.45;;;1.20;;
70426;SDS011;57872;55.432;37.248;2022-11-12T10:43:33;3.70;;;1.30;;
70426;SDS011;57872;55.432;37.248;2022-11-12T10:49:04;5.18;;;1.40;;
70426;SDS011;57872;55.432;37.248;2022-11-12T10:54:29;3.90;;;1.40;;
70426;SDS011;57872;55.432;37.248;2022-11-12T11:05:47;4.13;;;1.30;;
70426;SDS011;57872;55.432;37.248;2022-11-12T11:11:28;3.55;;;1.30;;
70426;SDS011;57872;55.432;37.248;2022-11-12T11:17:00;3.63;;;1.30;;
70426;SDS011;57872;55.432;37.248;2022-11-12T11:22:37;3.85;;;1.38;;
70426;SDS011;57872;55.432;37.248;2022-11-12T11:28:20;3.72;;;1.30;;
70426;SDS011;57872;55.432;37.248;2022-11-12T11:34:22;5.32;;;2.53;;
70426;SDS011;57872;55.432;37.248;2022-11-12T11:39:49;3.42;;;1.20;;
70426;SDS011;57872;55.432;37.248;2022-11-12T11:45:39;3.97;;;1.50;;
70426;SDS011;57872;55.432;37.248;2022-11-12T11:51:37;4.35;;;1.45;;
70426;SDS011;57872;55.432;37.248;2022-11-12T11:57:14;3.45;;;1.20;;
70426;SDS011;57872;55.432;37.248;2022-11-12T12:08:51;2.83;;;1.20;;
70426;SDS011;57872;55.432;37.248;2022-11-12T12:14:35;5.60;;;1.33;;
70426;SDS011;57872;55.432;37.248;2022-11-12T12:20:17;4.07;;;1.40;;
70426;SDS011;57872;55.432;37.248;2022-11-12T12:25:42;6.97;;;2.00;;
70426;SDS011;57872;55.432;37.248;2022-11-12T12:31:09;3.95;;;1.40;;
70426;SDS011;57872;55.432;37.248;2022-11-12T12:36:38;6.20;;;2.10;;
70426;SDS011;57872;55.432;37.248;2022-11-12T12:42:07;3.55;;;1.48;;
70426;SDS011;57872;55.432;37.248;2022-11-12T12:47:34;4.85;;;1.70;;
70426;SDS011;57872;55.432;37.248;2022-11-12T12:59:06;4.53;;;1.80;;
70426;SDS011;57872;55.432;37.248;2022-11-12T13:04:53;5.32;;;1.70;;
70426;SDS011;57872;55.432;37.248;2022-11-12T13:16:09;5.73;;;1.60;;
70426;SDS011;57872;55.432;37.248;2022-11-12T13:21:34;5.05;;;1.77;;
70426;SDS011;57872;55.432;37.248;2022-11-12T13:27:00;4.97;;;1.58;;
70426;SDS011;57872;55.432;37.248;2022-11-12T13:38:12;5.43;;;1.80;;
70426;SDS011;57872;55.432;37.248;2022-11-12T13:43:35;4.20;;;1.60;;
70426;SDS011;57872;55.432;37.248;2022-11-12T13:49:00;3.80;;;1.40;;
70426;SDS011;57872;55.432;37.248;2022-11-12T13:54:25;4.53;;;1.70;;
70426;SDS011;57872;55.432;37.248;2022-11-12T14:05:45;4.22;;;1.60;;
70426;SDS011;57872;55.432;37.248;2022-11-12T14:23:26;3.70;;;1.42;;
70426;SDS011;57872;55.432;37.248;2022-11-12T14:28:54;5.60;;;1.63;;
70426;SDS011;57872;55.432;37.248;2022-11-12T14:34:25;3.65;;;1.30;;
70426;SDS011;57872;55.432;37.248;2022-11-12T14:39:53;4.50;;;1.50;;
70426;SDS011;57872;55.432;37.248;2022-11-12T14:45:16;4.20;;;1.50;;
70426;SDS011;57872;55.432;37.248;2022-11-12T14:50:36;4.15;;;1.30;;
70426;SDS011;57872;55.432;37.248;2022-11-12T14:55:55;2.10;;;0.90;;
70426;SDS011;57872;55.432;37.248;2022-11-12T15:06:50;2.85;;;1.08;;
70426;SDS011;57872;55.432;37.248;2022-11-12T15:12:11;2.10;;;0.80;;
70426;SDS011;57872;55.432;37.248;2022-11-12T15:17:38;3.05;;;1.10;;
70426;SDS011;57872;55.432;37.248;2022-11-12T15:22:57;2.03;;;0.95;;
70426;SDS011;57872;55.432;37.248;2022-11-12T15:28:23;5.53;;;1.15;;
70426;SDS011;57872;55.432;37.248;2022-11-12T15:33:46;2.13;;;1.00;;
70426;SDS011;57872;55.432;37.248;2022-11-12T15:39:10;2.45;;;1.00;;
70426;SDS011;57872;55.432;37.248;2022-11-12T15:44:31;2.00;;;0.90;;
70426;SDS011;57872;55.432;37.248;2022-11-12T15:49:56;2.88;;;0.93;;
70426;SDS011;57872;55.432;37.248;2022-11-12T15:55:21;2.55;;;1.10;;
70426;SDS011;57872;55.432;37.248;2022-11-12T16:00:46;2.80;;;1.35;;
70426;SDS011;57872;55.432;37.248;2022-11-12T16:06:08;2.95;;;1.00;;
70426;SDS011;57872;55.432;37.248;2022-11-12T16:11:29;2.97;;;1.00;;
70426;SDS011;57872;55.432;37.248;2022-11-12T16:17:01;3.00;;;0.90;;
70426;SDS011;57872;55.432;37.248;2022-11-12T16:22:24;3.22;;;1.00;;
70426;SDS011;57872;55.432;37.248;2022-11-12T16:27:46;2.28;;;0.90;;
70426;SDS011;57872;55.432;37.248;2022-11-12T16:33:08;2.30;;;0.90;;
70426;SDS011;57872;55.432;37.248;2022-11-12T16:38:28;1.73;;;0.90;;
70426;SDS011;57872;55.432;37.248;2022-11-12T16:43:47;3.85;;;1.00;;
70426;SDS011;57872;55.432;37.248;2022-11-12T16:49:10;3.00;;;0.90;;
70426;SDS011;57872;55.432;37.248;2022-11-12T16:54:30;2.40;;;0.90;;
70426;SDS011;57872;55.432;37.248;2022-11-12T16:59:50;2.47;;;0.90;;
70426;SDS011;57872;55.432;37.248;2022-11-12T17:05:28;1.45;;;0.80;;
70426;SDS011;57872;55.432;37.248;2022-11-12T17:10:47;2.17;;;0.90;;
70426;SDS011;57872;55.432;37.248;2022-11-12T17:16:07;2.10;;;0.90;;
70426;SDS011;57872;55.432;37.248;2022-11-12T17:25:00;1.33;;;0.82;;
70426;SDS011;57872;55.432;37.248;2022-11-12T17:30:22;3.53;;;1.17;;
70426;SDS011;57872;55.432;37.248;2022-11-12T17:35:42;4.63;;;1.10;;
70426;SDS011;57872;55.432;37.248;2022-11-12T17:41:01;2.40;;;0.90;;
70426;SDS011;57872;55.432;37.248;2022-11-12T17:46:24;3.25;;;1.27;;
70426;SDS011;57872;55.432;37.248;2022-11-12T17:51:44;2.60;;;1.02;;
70426;SDS011;57872;55.432;37.248;2022-11-12T18:03:27;2.58;;;1.10;;
70426;SDS011;57872;55.432;37.248;2022-11-12T18:08:51;6.28;;;1.40;;
70426;SDS011;57872;55.432;37.248;2022-11-12T18:14:20;3.77;;;1.30;;
70426;SDS011;57872;55.432;37.248;2022-11-12T18:19:41;4.28;;;1.30;;
70426;SDS011;57872;55.432;37.248;2022-11-12T18:25:00;4.30;;;1.20;;
70426;SDS011;57872;55.432;37.248;2022-11-12T18:30:20;3.22;;;0.98;;
70426;SDS011;57872;55.432;37.248;2022-11-12T18:35:42;3.83;;;1.25;;
70426;SDS011;57872;55.432;37.248;2022-11-12T18:41:06;1.92;;;1.00;;
70426;SDS011;57872;55.432;37.248;2022-11-12T18:46:32;2.17;;;1.00;;
70426;SDS011;57872;55.432;37.248;2022-11-12T18:51:52;3.78;;;0.95;;
70426;SDS011;57872;55.432;37.248;2022-11-12T18:57:12;4.03;;;1.10;;
70426;SDS011;57872;55.432;37.248;2022-11-12T19:02:31;1.92;;;0.93;;
70426;SDS011;57872;55.432;37.248;2022-11-12T19:07:56;5.07;;;1.60;;
70426;SDS011;57872;55.432;37.248;2022-11-12T19:13:19;4.10;;;1.05;;
70426;SDS011;57872;55.432;37.248;2022-11-12T19:18:41;4.15;;;1.15;;
70426;SDS011;57872;55.432;37.248;2022-11-12T19:24:04;3.20;;;0.93;;
70426;SDS011;57872;55.432;37.248;2022-11-12T19:29:38;3.55;;;1.13;;
70426;SDS011;57872;55.432;37.248;2022-11-12T19:35:12;3.58;;;1.25;;
70426;SDS011;57872;55.432;37.248;2022-11-12T19:40:41;4.97;;;1.15;;
70426;SDS011;57872;55.432;37.248;2022-11-12T19:46:07;6.07;;;1.30;;
70426;SDS011;57872;55.432;37.248;2022-11-12T19:51:29;4.80;;;1.35;;
70426;SDS011;57872;55.432;37.248;2022-11-12T19:57:05;3.75;;;1.30;;
70426;SDS011;57872;55.432;37.248;2022-11-12T20:02:30;4.35;;;1.20;;
70426;SDS011;57872;55.432;37.248;2022-11-12T20:07:56;5.78;;;1.38;;
70426;SDS011;57872;55.432;37.248;2022-11-12T20:13:38;5.05;;;1.50;;
70426;SDS011;57872;55.432;37.248;2022-11-12T20:18:57;3.63;;;1.10;;
70426;SDS011;57872;55.432;37.248;2022-11-12T20:24:25;5.90;;;1.33;;
70426;SDS011;57872;55.432;37.248;2022-11-12T20:29:47;3.35;;;1.10;;
70426;SDS011;57872;55.432;37.248;2022-11-12T20:35:07;5.95;;;1.30;;
70426;SDS011;57872;55.432;37.248;2022-11-12T20:40:26;4.80;;;1.30;;
70426;SDS011;57872;55.432;37.248;2022-11-12T20:45:48;3.88;;;1.27;;
70426;SDS011;57872;55.432;37.248;2022-11-12T20:56:32;4.72;;;1.25;;
70426;SDS011;57872;55.432;37.248;2022-11-12T21:01:57;4.70;;;1.20;;
70426;SDS011;57872;55.432;37.248;2022-11-12T21:07:32;5.05;;;1.40;;
70426;SDS011;57872;55.432;37.248;2022-11-12T21:13:01;4.70;;;1.20;;
70426;SDS011;57872;55.432;37.248;2022-11-12T21:18:34;4.80;;;1.60;;
70426;SDS011;57872;55.432;37.248;2022-11-12T21:24:07;4.35;;;1.10;;
70426;SDS011;57872;55.432;37.248;2022-11-12T21:29:47;4.68;;;1.20;;
70426;SDS011;57872;55.432;37.248;2022-11-12T21:35:12;5.30;;;1.20;;
70426;SDS011;57872;55.432;37.248;2022-11-12T21:40:36;4.22;;;1.13;;
70426;SDS011;57872;55.432;37.248;2022-11-12T21:45:59;5.50;;;1.43;;
70426;SDS011;57872;55.432;37.248;2022-11-12T21:51:33;4.80;;;1.20;;
70426;SDS011;57872;55.432;37.248;2022-11-12T21:57:02;4.95;;;1.40;;
70426;SDS011;57872;55.432;37.248;2022-11-12T22:02:31;5.97;;;1.75;;
70426;SDS011;57872;55.432;37.248;2022-11-12T22:07:53;3.67;;;1.20;;
70426;SDS011;57872;55.432;37.248;2022-11-12T22:13:15;4.82;;;1.30;;
70426;SDS011;57872;55.432;37.248;2022-11-12T22:18:50;6.57;;;1.40;;
70426;SDS011;57872;55.432;37.248;2022-11-12T22:24:18;4.88;;;1.10;;
70426;SDS011;57872;55.432;37.248;2022-11-12T22:29:43;5.35;;;1.27;;
70426;SDS011;57872;55.432;37.248;2022-11-12T22:35:13;5.03;;;1.30;;
70426;SDS011;57872;55.432;37.248;2022-11-12T22:40:52;3.80;;;1.00;;
70426;SDS011;57872;55.432;37.248;2022-11-12T22:46:40;3.75;;;1.02;;
70426;SDS011;57872;55.432;37.248;2022-11-12T22:52:03;4.25;;;1.00;;
70426;SDS011;57872;55.432;37.248;2022-11-12T22:57:23;3.22;;;1.00;;
70426;SDS011;57872;55.432;37.248;2022-11-12T23:02:48;2.72;;;0.93;;
70426;SDS011;57872;55.432;37.248;2022-11-12T23:08:07;5.05;;;1.98;;
70426;SDS011;57872;55.432;37.248;2022-11-12T23:13:27;3.00;;;0.90;;
70426;SDS011;57872;55.432;37.248;2022-11-12T23:18:46;1.50;;;0.70;;
70426;SDS011;57872;55.432;37.248;2022-11-12T23:24:06;4.80;;;0.95;;
70426;SDS011;57872;55.432;37.248;2022-11-12T23:29:25;4.13;;;0.90;;
70426;SDS011;57872;55.432;37.248;2022-11-12T23:34:44;2.78;;;1.02;;
70426;SDS011;57872;55.432;37.248;2022-11-12T23:40:03;2.45;;;0.93;;
70426;SDS011;57872;55.432;37.248;2022-11-12T23:45:22;4.63;;;1.20;;
70426;SDS011;57872;55.432;37.248;2022-11-12T23:50:42;4.72;;;1.00;;
70426;SDS011;57872;55.432;37.248;2022-11-12T23:56:02;4.30;;;1.40;;
